createdAt,value
2017-08-06T00:00:56.675Z,100527.17
2017-08-06T00:03:58.965Z,100529.77
2017-08-06T00:07:00.454Z,100521.19
2017-08-06T00:10:01.893Z,100524.91
2017-08-06T00:13:03.400Z,100529.17
2017-08-06T00:16:05.173Z,100537.02
2017-08-06T00:19:06.648Z,100544.70
2017-08-06T00:22:08.137Z,100546.61
2017-08-06T00:25:09.694Z,100553.75
2017-08-06T00:28:11.162Z,100545.59
2017-08-06T00:31:13.379Z,100559.58
2017-08-06T00:34:14.858Z,100556.18
2017-08-06T00:37:16.529Z,100569.48
2017-08-06T00:40:18.776Z,100570.48
2017-08-06T00:43:20.291Z,100572.43
2017-08-06T00:46:21.742Z,100572.06
2017-08-06T00:49:23.248Z,100576.28
2017-08-06T00:52:24.727Z,100568.15
2017-08-06T00:55:26.920Z,100574.84
2017-08-06T00:58:28.363Z,100568.40
2017-08-06T01:01:29.868Z,100576.64
2017-08-06T01:04:31.356Z,100580.70
2017-08-06T01:07:32.773Z,100580.70
2017-08-06T01:10:34.245Z,100578.23
2017-08-06T01:13:35.776Z,100575.17
2017-08-06T01:16:37.272Z,100579.32
2017-08-06T01:19:38.763Z,100586.06
2017-08-06T01:22:40.226Z,100580.16
2017-08-06T01:25:41.731Z,100589.00
2017-08-06T01:28:43.215Z,100600.11
2017-08-06T01:31:44.657Z,100596.36
2017-08-06T01:34:46.168Z,100590.90
2017-08-06T01:37:48.390Z,100585.87
2017-08-06T01:40:49.936Z,100598.89
2017-08-06T01:43:51.444Z,100591.22
2017-08-06T01:46:53.004Z,100588.95
2017-08-06T01:49:54.527Z,100601.77
2017-08-06T01:52:56.043Z,100606.48
2017-08-06T01:55:57.564Z,100604.45
2017-08-06T01:58:59.789Z,100605.05
2017-08-06T02:02:01.322Z,100613.59
2017-08-06T02:05:02.847Z,100610.22
2017-08-06T02:08:05.089Z,100615.84
2017-08-06T02:11:06.784Z,100611.28
2017-08-06T02:14:09.012Z,100620.16
2017-08-06T02:17:10.521Z,100604.84
2017-08-06T02:20:12.014Z,100616.13
2017-08-06T02:23:13.544Z,100618.06
2017-08-06T02:26:15.023Z,100620.46
2017-08-06T02:29:16.565Z,100631.07
2017-08-06T02:32:18.002Z,100628.98
2017-08-06T02:35:19.498Z,100636.43
2017-08-06T02:38:21.128Z,100642.34
2017-08-06T02:41:22.566Z,100642.27
2017-08-06T02:44:24.047Z,100636.53
2017-08-06T02:47:25.511Z,100650.13
2017-08-06T02:50:27.047Z,100644.89
2017-08-06T02:53:28.490Z,100643.45
2017-08-06T02:56:29.949Z,100646.02
2017-08-06T02:59:31.417Z,100646.20
2017-08-06T03:02:32.945Z,100653.67
2017-08-06T03:05:34.369Z,100651.75
2017-08-06T03:08:35.854Z,100652.51
2017-08-06T03:11:37.301Z,100649.75
2017-08-06T03:14:38.842Z,100653.33
2017-08-06T03:17:40.573Z,100655.60
2017-08-06T03:20:42.758Z,100664.56
2017-08-06T03:23:44.247Z,100662.60
2017-08-06T03:26:45.699Z,100657.27
2017-08-06T03:29:47.219Z,100660.30
2017-08-06T03:32:48.692Z,100660.91
2017-08-06T03:35:50.198Z,100671.14
2017-08-06T03:38:52.463Z,100670.86
2017-08-06T03:41:53.901Z,100671.83
2017-08-06T03:44:55.727Z,100666.45
2017-08-06T03:47:57.225Z,100671.13
2017-08-06T03:50:58.633Z,100669.59
2017-08-06T03:54:00.129Z,100674.53
2017-08-06T03:57:01.600Z,100683.83
2017-08-06T04:00:03.264Z,100676.22
2017-08-06T04:03:05.470Z,100684.35
2017-08-06T04:06:07.027Z,100684.02
2017-08-06T04:09:08.511Z,100690.95
2017-08-06T04:12:10.015Z,100686.27
2017-08-06T04:15:11.468Z,100690.93
2017-08-06T04:18:12.927Z,100692.52
2017-08-06T04:21:14.670Z,100695.97
2017-08-06T04:24:16.896Z,100703.75
2017-08-06T04:27:18.377Z,100703.09
2017-08-06T04:30:19.811Z,100706.08
2017-08-06T04:33:21.356Z,100705.88
2017-08-06T04:36:22.788Z,100703.08
2017-08-06T04:39:24.296Z,100711.34
2017-08-06T04:42:25.752Z,100713.88
2017-08-06T04:45:27.978Z,100715.17
2017-08-06T04:48:29.509Z,100714.84
2017-08-06T04:51:31.083Z,100714.44
2017-08-06T04:54:32.632Z,100719.37
2017-08-06T04:57:34.071Z,100724.73
2017-08-06T05:00:35.647Z,100733.44
2017-08-06T05:03:37.101Z,100734.09
2017-08-06T05:06:38.566Z,100741.36
2017-08-06T05:09:40.258Z,100723.47
2017-08-06T05:12:42.471Z,100741.52
2017-08-06T05:15:43.963Z,100739.20
2017-08-06T05:18:45.533Z,100750.42
2017-08-06T05:21:47.720Z,100747.78
2017-08-06T05:24:49.887Z,100748.59
2017-08-06T05:27:51.376Z,100745.50
2017-08-06T05:30:52.801Z,100751.26
2017-08-06T05:33:54.279Z,100754.95
2017-08-06T05:36:55.875Z,100760.51
2017-08-06T05:39:58.148Z,100757.98
2017-08-06T05:42:59.775Z,100769.30
2017-08-06T05:46:01.243Z,100768.97
2017-08-06T05:49:02.796Z,100766.30
2017-08-06T05:52:04.276Z,100767.69
2017-08-06T05:55:06.526Z,100776.39
2017-08-06T05:58:07.992Z,100784.48
2017-08-06T06:01:10.243Z,100781.22
2017-08-06T06:04:11.719Z,100784.79
2017-08-06T06:07:13.991Z,100793.84
2017-08-06T06:10:15.454Z,100792.50
2017-08-06T06:13:17.712Z,100800.35
2017-08-06T06:16:20.010Z,100797.80
2017-08-06T06:19:21.515Z,100812.41
2017-08-06T06:22:22.976Z,100818.67
2017-08-06T06:25:24.401Z,100817.96
2017-08-06T06:28:25.945Z,100828.48
2017-08-06T06:31:27.402Z,100833.72
2017-08-06T06:34:29.011Z,100828.69
2017-08-06T06:37:30.513Z,100839.00
2017-08-06T06:40:32.006Z,100844.80
2017-08-06T06:43:33.516Z,100843.22
2017-08-06T06:46:35.004Z,100855.18
2017-08-06T06:49:36.708Z,100843.87
2017-08-06T06:52:38.201Z,100851.54
2017-08-06T06:55:39.780Z,100849.60
2017-08-06T06:58:41.214Z,100858.69
2017-08-06T07:01:42.713Z,100864.55
2017-08-06T07:04:44.898Z,100864.98
2017-08-06T07:07:47.191Z,100877.27
2017-08-06T07:10:48.687Z,100877.46
2017-08-06T07:13:50.154Z,100873.33
2017-08-06T07:16:51.873Z,100877.09
2017-08-06T07:19:53.408Z,100879.46
2017-08-06T07:22:55.037Z,100871.45
2017-08-06T07:25:57.195Z,100888.10
2017-08-06T07:28:58.702Z,100877.23
2017-08-06T07:32:00.129Z,100878.53
2017-08-06T07:35:02.405Z,100896.96
2017-08-06T07:38:03.974Z,100903.03
2017-08-06T07:41:05.519Z,100891.95
2017-08-06T07:44:07.294Z,100893.11
2017-08-06T07:47:08.771Z,100893.53
2017-08-06T07:50:10.317Z,100887.25
2017-08-06T07:53:11.813Z,100899.77
2017-08-06T07:56:14.085Z,100898.31
2017-08-06T07:59:15.598Z,100902.15
2017-08-06T08:02:17.098Z,100908.16
2017-08-06T08:05:18.997Z,100905.52
2017-08-06T08:08:20.477Z,100905.08
2017-08-06T08:11:22.102Z,100911.64
2017-08-06T08:14:23.651Z,100916.57
2017-08-06T08:17:25.172Z,100906.09
2017-08-06T08:20:26.714Z,100901.59
2017-08-06T08:23:28.257Z,100902.50
2017-08-06T08:26:29.735Z,100913.38
2017-08-06T08:29:31.300Z,100908.14
2017-08-06T08:32:33.640Z,100911.23
2017-08-06T08:35:35.130Z,100905.25
2017-08-06T08:38:36.647Z,100909.59
2017-08-06T08:41:38.151Z,100922.42
2017-08-06T08:44:39.666Z,100915.13
2017-08-06T08:47:41.190Z,100913.34
2017-08-06T08:50:42.747Z,100916.91
2017-08-06T08:53:44.204Z,100925.20
2017-08-06T08:56:45.713Z,100919.77
2017-08-06T08:59:48.064Z,100915.47
2017-08-06T09:02:49.519Z,100916.44
2017-08-06T09:05:51.242Z,100918.73
2017-08-06T09:08:52.760Z,100926.51
2017-08-06T09:11:54.328Z,100927.08
2017-08-06T09:14:55.743Z,100928.95
2017-08-06T09:17:58.017Z,100931.31
2017-08-06T09:21:00.160Z,100930.00
2017-08-06T09:24:02.409Z,100939.16
2017-08-06T09:27:03.861Z,100933.80
2017-08-06T09:30:05.344Z,100936.62
2017-08-06T09:33:06.862Z,100929.22
2017-08-06T09:36:15.264Z,100933.77
2017-08-06T09:39:16.677Z,100933.91
2017-08-06T09:42:18.073Z,100946.91
2017-08-06T09:45:19.502Z,100939.55
2017-08-06T09:48:21.606Z,100939.61
2017-08-06T09:51:23.072Z,100935.77
2017-08-06T09:54:24.621Z,100932.63
2017-08-06T09:57:26.017Z,100940.45
2017-08-06T10:00:28.272Z,100937.96
2017-08-06T10:03:29.671Z,100936.35
2017-08-06T10:06:31.082Z,100923.48
2017-08-06T10:09:32.434Z,100916.03
2017-08-06T10:12:33.849Z,100927.92
2017-08-06T10:15:35.209Z,100921.01
2017-08-06T10:18:38.161Z,100926.97
2017-08-06T10:21:39.828Z,100915.13
2017-08-06T10:24:41.254Z,100916.38
2017-08-06T10:27:43.411Z,100906.36
2017-08-06T10:30:44.801Z,100905.62
2017-08-06T10:33:46.230Z,100899.83
2017-08-06T10:36:48.335Z,100909.02
2017-08-06T10:39:49.790Z,100893.98
2017-08-06T10:42:51.163Z,100894.19
2017-08-06T10:45:52.548Z,100895.91
2017-08-06T10:48:54.689Z,100897.63
2017-08-06T10:51:56.119Z,100900.38
2017-08-06T10:54:57.512Z,100894.38
2017-08-06T10:57:58.901Z,100891.57
2017-08-06T11:01:00.238Z,100891.64
2017-08-06T11:04:02.358Z,100894.70
2017-08-06T11:07:03.743Z,100895.52
2017-08-06T11:10:05.931Z,100893.07
2017-08-06T11:13:07.389Z,100879.22
2017-08-06T11:16:08.741Z,100886.16
2017-08-06T11:19:10.124Z,100885.65
2017-08-06T11:22:11.514Z,100885.11
2017-08-06T11:25:13.649Z,100881.51
2017-08-06T11:28:15.017Z,100876.29
2017-08-06T11:31:16.393Z,100885.88
2017-08-06T11:34:17.730Z,100878.75
2017-08-06T11:37:19.121Z,100867.60
2017-08-06T11:40:20.728Z,100876.73
2017-08-06T11:43:22.116Z,100878.40
2017-08-06T11:46:23.660Z,100874.30
2017-08-06T11:49:25.078Z,100866.79
2017-08-06T11:52:26.606Z,100861.97
2017-08-06T11:55:27.945Z,100866.70
2017-08-06T11:58:29.354Z,100866.94
2017-08-06T12:01:30.737Z,100865.10
2017-08-06T12:04:32.177Z,100865.31
2017-08-06T12:07:33.567Z,100854.88
2017-08-06T12:10:35.018Z,100853.70
2017-08-06T12:13:36.557Z,100857.91
2017-08-06T12:16:37.973Z,100858.62
2017-08-06T12:19:40.135Z,100862.94
2017-08-06T12:22:42.255Z,100853.67
2017-08-06T12:25:43.651Z,100860.87
2017-08-06T12:28:45.822Z,100856.12
2017-08-06T12:31:48.021Z,100859.70
2017-08-06T12:34:49.441Z,100856.72
2017-08-06T12:37:51.621Z,100863.39
2017-08-06T12:40:53.765Z,100855.47
2017-08-06T12:43:55.129Z,100865.08
2017-08-06T12:46:56.549Z,100867.14
2017-08-06T12:49:57.961Z,100862.20
2017-08-06T12:52:59.441Z,100863.17
2017-08-06T12:56:00.837Z,100859.35
2017-08-06T12:59:02.262Z,100862.68
2017-08-06T13:02:03.782Z,100859.28
2017-08-06T13:05:05.195Z,100865.05
2017-08-06T13:08:07.374Z,100861.55
2017-08-06T13:11:09.498Z,100866.05
2017-08-06T13:14:10.955Z,100863.16
2017-08-06T13:17:12.385Z,100860.74
2017-08-06T13:20:13.881Z,100855.67
2017-08-06T13:23:16.157Z,100856.52
2017-08-06T13:26:18.287Z,100851.58
2017-08-06T13:29:19.772Z,100857.22
2017-08-06T13:32:21.935Z,100857.91
2017-08-06T13:35:24.106Z,100852.40
2017-08-06T13:38:26.253Z,100849.51
2017-08-06T13:41:27.733Z,100851.85
2017-08-06T13:44:30.253Z,100849.96
2017-08-06T13:47:31.644Z,100851.02
2017-08-06T13:50:33.071Z,100853.20
2017-08-06T13:53:34.567Z,100847.14
2017-08-06T13:56:36.787Z,100842.46
2017-08-06T13:59:38.264Z,100846.93
2017-08-06T14:02:39.701Z,100844.09
2017-08-06T14:05:41.291Z,100845.00
2017-08-06T14:08:43.443Z,100845.32
2017-08-06T14:11:44.860Z,100841.80
2017-08-06T14:14:46.242Z,100851.49
2017-08-06T14:17:47.668Z,100852.52
2017-08-06T14:20:49.025Z,100851.77
2017-08-06T14:23:50.422Z,100858.23
2017-08-06T14:26:51.821Z,100851.88
2017-08-06T14:29:53.287Z,100855.55
2017-08-06T14:32:54.867Z,100851.66
2017-08-06T14:35:56.993Z,100853.73
2017-08-06T14:38:58.395Z,100848.97
2017-08-06T14:41:59.764Z,100846.45
2017-08-06T14:45:01.893Z,100844.73
2017-08-06T14:48:03.420Z,100847.98
2017-08-06T14:51:04.808Z,100842.11
2017-08-06T14:54:06.221Z,100842.77
2017-08-06T14:57:07.608Z,100841.46
2017-08-06T15:00:09.073Z,100839.77
2017-08-06T15:03:10.449Z,100827.59
2017-08-06T15:06:11.894Z,100836.27
2017-08-06T15:09:13.281Z,100838.92
2017-08-06T15:12:14.745Z,100839.92
2017-08-06T15:15:16.165Z,100845.08
2017-08-06T15:18:17.564Z,100840.70
2017-08-06T15:21:18.990Z,100841.25
2017-08-06T15:24:20.371Z,100834.23
2017-08-06T15:27:21.770Z,100838.41
2017-08-06T15:30:23.167Z,100834.36
2017-08-06T15:33:24.607Z,100845.44
2017-08-06T15:36:25.968Z,100841.92
2017-08-06T15:39:27.489Z,100844.52
2017-08-06T15:42:28.867Z,100840.44
2017-08-06T15:45:30.405Z,100838.27
2017-08-06T15:48:31.864Z,100844.03
2017-08-06T15:51:33.336Z,100848.91
2017-08-06T15:54:34.769Z,100845.50
2017-08-06T15:57:36.126Z,100849.25
2017-08-06T16:00:37.555Z,100834.83
2017-08-06T16:03:38.896Z,100839.31
2017-08-06T16:06:40.432Z,100839.64
2017-08-06T16:09:41.852Z,100840.84
2017-08-06T16:12:43.303Z,100836.58
2017-08-06T16:15:44.703Z,100834.12
2017-08-06T16:18:46.145Z,100833.02
2017-08-06T16:21:47.682Z,100833.89
2017-08-06T16:24:49.842Z,100830.70
2017-08-06T16:27:51.334Z,100828.38
2017-08-06T16:30:52.726Z,100835.28
2017-08-06T16:33:54.181Z,100838.41
2017-08-06T16:36:55.570Z,100839.36
2017-08-06T16:39:57.761Z,100831.64
2017-08-06T16:42:59.292Z,100813.47
2017-08-06T16:46:01.490Z,100823.38
2017-08-06T16:49:02.957Z,100826.05
2017-08-06T16:52:04.401Z,100821.00
2017-08-06T16:55:05.848Z,100815.14
2017-08-06T16:58:07.269Z,100814.27
2017-08-06T17:01:09.485Z,100822.59
2017-08-06T17:04:10.934Z,100811.69
2017-08-06T17:07:12.343Z,100803.01
2017-08-06T17:10:14.611Z,100804.80
2017-08-06T17:13:16.774Z,100802.36
2017-08-06T17:16:19.120Z,100810.64
2017-08-06T17:19:20.546Z,100804.80
2017-08-06T17:22:22.071Z,100808.54
2017-08-06T17:25:24.231Z,100815.94
2017-08-06T17:28:26.397Z,100801.52
2017-08-06T17:31:28.603Z,100809.83
2017-08-06T17:34:30.153Z,100810.81
2017-08-06T17:37:32.229Z,100813.09
2017-08-06T17:40:33.633Z,100813.00
2017-08-06T17:43:35.474Z,100813.72
2017-08-06T17:46:37.646Z,100813.84
2017-08-06T17:49:39.830Z,100811.78
2017-08-06T17:52:41.302Z,100815.36
2017-08-06T17:55:42.786Z,100812.66
2017-08-06T17:58:44.244Z,100811.30
2017-08-06T18:01:45.671Z,100812.46
2017-08-06T18:04:47.240Z,100799.73
2017-08-06T18:07:48.657Z,100805.81
2017-08-06T18:10:50.284Z,100806.94
2017-08-06T18:13:52.655Z,100811.66
2017-08-06T18:16:54.929Z,100811.44
2017-08-06T18:19:56.534Z,100806.59
2017-08-06T18:23:00.071Z,100809.95
2017-08-06T18:26:02.853Z,100804.69
2017-08-06T18:29:05.112Z,100819.80
2017-08-06T18:32:08.456Z,100813.53
2017-08-06T18:35:10.013Z,100813.63
2017-08-06T18:38:12.418Z,100815.39
2017-08-06T18:41:14.879Z,100813.34
2017-08-06T18:44:18.689Z,100815.14
2017-08-06T18:47:20.835Z,100818.67
2017-08-06T18:50:22.273Z,100815.30
2017-08-06T18:53:23.700Z,100812.31
2017-08-06T18:56:25.768Z,100813.73
2017-08-06T18:59:27.638Z,100814.45
2017-08-06T19:02:31.488Z,100815.23
2017-08-06T19:05:34.479Z,100810.20
2017-08-06T19:08:35.948Z,100809.87
2017-08-06T19:11:38.301Z,100816.97
2017-08-06T19:14:39.806Z,100813.99
2017-08-06T19:17:42.300Z,100818.64
2017-08-06T19:20:45.275Z,100830.72
2017-08-06T19:23:46.866Z,100835.83
2017-08-06T19:26:48.616Z,100830.03
2017-08-06T19:29:51.784Z,100825.67
2017-08-06T19:32:54.736Z,100839.68
2017-08-06T19:35:56.895Z,100840.52
2017-08-06T19:38:58.320Z,100849.77
2017-08-06T19:42:01.225Z,100847.73
2017-08-06T19:45:04.092Z,100847.48
2017-08-06T19:48:06.310Z,100852.33
2017-08-06T19:51:07.791Z,100845.34
2017-08-06T19:54:09.267Z,100851.06
2017-08-06T19:57:11.591Z,100848.20
2017-08-06T20:00:14.135Z,100849.25
2017-08-06T20:03:15.524Z,100843.81
2017-08-06T20:06:17.681Z,100840.92
2017-08-06T20:09:19.789Z,100849.89
2017-08-06T20:12:21.190Z,100845.59
2017-08-06T20:15:23.625Z,100842.84
2017-08-06T20:18:27.060Z,100839.30
2017-08-06T20:21:28.915Z,100840.80
2017-08-06T20:24:30.492Z,100837.18
2017-08-06T20:27:32.692Z,100823.02
2017-08-06T20:30:34.910Z,100825.83
2017-08-06T20:33:36.339Z,100826.26
2017-08-06T20:36:38.510Z,100836.59
2017-08-06T20:39:39.968Z,100839.42
2017-08-06T20:42:41.388Z,100834.34
2017-08-06T20:45:43.731Z,100838.30
2017-08-06T20:48:47.375Z,100827.88
2017-08-06T20:51:49.100Z,100830.30
2017-08-06T20:54:50.584Z,100835.12
2017-08-06T20:57:52.132Z,100829.66
2017-08-06T21:00:53.669Z,100820.55
2017-08-06T21:03:55.240Z,100826.88
2017-08-06T21:06:57.461Z,100819.64
2017-08-06T21:09:58.990Z,100824.51
2017-08-06T21:13:00.524Z,100822.42
2017-08-06T21:16:02.263Z,100812.93
2017-08-06T21:19:04.564Z,100817.36
2017-08-06T21:22:06.200Z,100814.95
2017-08-06T21:25:07.699Z,100825.16
2017-08-06T21:28:09.411Z,100820.17
2017-08-06T21:31:11.045Z,100823.66
2017-08-06T21:34:12.570Z,100809.89
2017-08-06T21:37:14.218Z,100819.42
2017-08-06T21:40:15.824Z,100817.64
2017-08-06T21:43:17.358Z,100821.41
2017-08-06T21:46:18.897Z,100818.57
2017-08-06T21:49:20.407Z,100814.14
2017-08-06T21:52:22.010Z,100816.91
2017-08-06T21:55:23.572Z,100828.64
2017-08-06T21:58:25.095Z,100820.42
2017-08-06T22:01:27.432Z,100826.82
2017-08-06T22:04:29.001Z,100824.73
2017-08-06T22:07:30.624Z,100820.40
2017-08-06T22:10:32.169Z,100822.48
2017-08-06T22:13:33.666Z,100816.55
2017-08-06T22:19:43.413Z,100821.55
2017-08-06T22:22:44.936Z,100804.72
2017-08-06T22:25:46.457Z,100812.06
2017-08-06T22:28:48.008Z,100821.39
2017-08-06T22:31:50.311Z,100808.27
2017-08-06T22:34:51.830Z,100808.58
2017-08-06T22:37:53.402Z,100816.25
2017-08-06T22:40:55.684Z,100818.24
2017-08-06T22:43:58.051Z,100814.16
2017-08-06T22:47:00.306Z,100817.86
2017-08-06T22:50:01.860Z,100813.34
2017-08-06T22:53:03.408Z,100812.59
2017-08-06T22:56:04.947Z,100810.80
2017-08-06T22:59:06.784Z,100810.92
2017-08-06T23:02:08.318Z,100811.86
2017-08-06T23:05:10.143Z,100811.56
2017-08-06T23:08:12.422Z,100805.80
2017-08-06T23:11:13.955Z,100793.23
2017-08-06T23:14:15.517Z,100802.26
2017-08-06T23:17:17.063Z,100793.76
2017-08-06T23:20:18.999Z,100800.52
2017-08-06T23:23:20.496Z,100803.60
2017-08-06T23:26:22.112Z,100795.16
2017-08-06T23:29:23.620Z,100797.72
2017-08-06T23:32:25.191Z,100788.57
2017-08-06T23:35:26.700Z,100792.28
2017-08-06T23:38:28.259Z,100792.56
2017-08-06T23:41:29.781Z,100785.66
2017-08-06T23:44:31.291Z,100782.77
2017-08-06T23:47:33.606Z,100786.13
2017-08-06T23:50:35.154Z,100782.75
2017-08-06T23:53:36.831Z,100768.91
2017-08-06T23:56:38.383Z,100771.18
2017-08-06T23:59:39.963Z,100766.59
